sensor_id;sensor_type;location;lat;lon;timestamp;P1;durP1;ratioP1;P2;durP2;ratioP2
30020;SDS011;16861;52.294;7.760;2023-02-15T00:01:49;16.65;;;10.95;;
30020;SDS011;16861;52.294;7.760;2023-02-15T00:04:17;16.45;;;10.95;;
30020;SDS011;16861;52.294;7.760;2023-02-15T00:06:45;18.17;;;11.65;;
30020;SDS011;16861;52.294;7.760;2023-02-15T00:09:12;16.73;;;10.82;;
30020;SDS011;16861;52.294;7.760;2023-02-15T00:11:39;15.50;;;10.40;;
30020;SDS011;16861;52.294;7.760;2023-02-15T00:14:10;17.20;;;10.75;;
30020;SDS011;16861;52.294;7.760;2023-02-15T00:19:06;13.48;;;9.43;;
30020;SDS011;16861;52.294;7.760;2023-02-15T00:21:34;15.45;;;9.60;;
30020;SDS011;16861;52.294;7.760;2023-02-15T00:24:02;14.68;;;9.48;;
30020;SDS011;16861;52.294;7.760;2023-02-15T00:26:30;16.60;;;9.68;;
30020;SDS011;16861;52.294;7.760;2023-02-15T00:28:56;16.10;;;10.57;;
30020;SDS011;16861;52.294;7.760;2023-02-15T00:31:27;17.92;;;10.95;;
30020;SDS011;16861;52.294;7.760;2023-02-15T00:34:03;14.88;;;10.52;;
30020;SDS011;16861;52.294;7.760;2023-02-15T00:36:36;16.60;;;10.60;;
30020;SDS011;16861;52.294;7.760;2023-02-15T00:39:03;16.00;;;10.65;;
30020;SDS011;16861;52.294;7.760;2023-02-15T00:41:33;17.35;;;9.73;;
30020;SDS011;16861;52.294;7.760;2023-02-15T00:44:00;14.25;;;9.68;;
30020;SDS011;16861;52.294;7.760;2023-02-15T00:46:27;17.23;;;10.43;;
30020;SDS011;16861;52.294;7.760;2023-02-15T00:48:53;14.68;;;10.52;;
30020;SDS011;16861;52.294;7.760;2023-02-15T00:51:20;15.95;;;10.02;;
30020;SDS011;16861;52.294;7.760;2023-02-15T00:53:46;14.48;;;9.93;;
30020;SDS011;16861;52.294;7.760;2023-02-15T00:56:13;16.25;;;9.48;;
30020;SDS011;16861;52.294;7.760;2023-02-15T00:58:40;16.55;;;10.60;;
30020;SDS011;16861;52.294;7.760;2023-02-15T01:01:08;15.90;;;10.20;;
30020;SDS011;16861;52.294;7.760;2023-02-15T01:03:39;14.02;;;9.55;;
30020;SDS011;16861;52.294;7.760;2023-02-15T01:06:08;15.00;;;10.10;;
30020;SDS011;16861;52.294;7.760;2023-02-15T01:08:35;15.82;;;10.73;;
30020;SDS011;16861;52.294;7.760;2023-02-15T01:11:03;18.30;;;11.70;;
30020;SDS011;16861;52.294;7.760;2023-02-15T01:13:34;15.00;;;10.43;;
30020;SDS011;16861;52.294;7.760;2023-02-15T01:16:02;15.18;;;10.65;;
30020;SDS011;16861;52.294;7.760;2023-02-15T01:18:30;17.25;;;11.15;;
30020;SDS011;16861;52.294;7.760;2023-02-15T01:20:57;13.65;;;9.52;;
30020;SDS011;16861;52.294;7.760;2023-02-15T01:23:23;17.42;;;10.68;;
30020;SDS011;16861;52.294;7.760;2023-02-15T01:25:50;14.95;;;9.65;;
30020;SDS011;16861;52.294;7.760;2023-02-15T01:28:16;15.38;;;10.45;;
30020;SDS011;16861;52.294;7.760;2023-02-15T01:30:43;15.88;;;10.43;;
30020;SDS011;16861;52.294;7.760;2023-02-15T01:33:10;15.27;;;10.52;;
30020;SDS011;16861;52.294;7.760;2023-02-15T01:35:46;15.65;;;9.93;;
30020;SDS011;16861;52.294;7.760;2023-02-15T01:38:13;15.25;;;10.25;;
30020;SDS011;16861;52.294;7.760;2023-02-15T01:40:40;14.18;;;9.95;;
30020;SDS011;16861;52.294;7.760;2023-02-15T01:43:10;14.60;;;9.82;;
30020;SDS011;16861;52.294;7.760;2023-02-15T01:45:38;15.23;;;9.35;;
30020;SDS011;16861;52.294;7.760;2023-02-15T01:50:53;15.65;;;10.57;;
30020;SDS011;16861;52.294;7.760;2023-02-15T01:53:33;15.15;;;10.27;;
30020;SDS011;16861;52.294;7.760;2023-02-15T01:56:06;16.15;;;10.35;;
30020;SDS011;16861;52.294;7.760;2023-02-15T01:58:43;16.10;;;10.18;;
30020;SDS011;16861;52.294;7.760;2023-02-15T02:01:11;16.45;;;10.45;;
30020;SDS011;16861;52.294;7.760;2023-02-15T02:03:43;15.90;;;10.73;;
30020;SDS011;16861;52.294;7.760;2023-02-15T02:06:13;15.15;;;10.70;;
30020;SDS011;16861;52.294;7.760;2023-02-15T02:08:41;16.63;;;11.43;;
30020;SDS011;16861;52.294;7.760;2023-02-15T02:11:11;21.35;;;11.52;;
30020;SDS011;16861;52.294;7.760;2023-02-15T02:13:41;19.73;;;11.40;;
30020;SDS011;16861;52.294;7.760;2023-02-15T02:19:04;17.40;;;11.13;;
30020;SDS011;16861;52.294;7.760;2023-02-15T02:24:36;19.33;;;12.30;;
30020;SDS011;16861;52.294;7.760;2023-02-15T02:27:24;21.07;;;11.87;;
30020;SDS011;16861;52.294;7.760;2023-02-15T02:30:22;18.33;;;12.45;;
30020;SDS011;16861;52.294;7.760;2023-02-15T02:33:01;19.80;;;12.48;;
30020;SDS011;16861;52.294;7.760;2023-02-15T02:35:53;23.63;;;12.30;;
30020;SDS011;16861;52.294;7.760;2023-02-15T02:43:54;23.15;;;14.00;;
30020;SDS011;16861;52.294;7.760;2023-02-15T02:46:39;20.95;;;13.98;;
30020;SDS011;16861;52.294;7.760;2023-02-15T02:49:16;21.35;;;14.18;;
30020;SDS011;16861;52.294;7.760;2023-02-15T02:51:43;22.17;;;14.23;;
30020;SDS011;16861;52.294;7.760;2023-02-15T02:54:10;27.58;;;15.00;;
30020;SDS011;16861;52.294;7.760;2023-02-15T02:56:37;25.83;;;15.27;;
30020;SDS011;16861;52.294;7.760;2023-02-15T02:59:13;22.75;;;13.80;;
30020;SDS011;16861;52.294;7.760;2023-02-15T03:01:46;22.52;;;13.68;;
30020;SDS011;16861;52.294;7.760;2023-02-15T03:04:25;20.02;;;13.88;;
30020;SDS011;16861;52.294;7.760;2023-02-15T03:06:57;22.83;;;14.43;;
30020;SDS011;16861;52.294;7.760;2023-02-15T03:09:28;24.63;;;14.70;;
30020;SDS011;16861;52.294;7.760;2023-02-15T03:12:27;24.85;;;14.63;;
30020;SDS011;16861;52.294;7.760;2023-02-15T03:14:59;24.85;;;14.70;;
30020;SDS011;16861;52.294;7.760;2023-02-15T03:20:06;21.25;;;14.25;;
30020;SDS011;16861;52.294;7.760;2023-02-15T03:22:38;24.08;;;15.30;;
30020;SDS011;16861;52.294;7.760;2023-02-15T03:25:11;25.70;;;14.43;;
30020;SDS011;16861;52.294;7.760;2023-02-15T03:27:44;29.98;;;14.45;;
30020;SDS011;16861;52.294;7.760;2023-02-15T03:30:15;27.63;;;15.45;;
30020;SDS011;16861;52.294;7.760;2023-02-15T03:32:48;24.15;;;13.95;;
30020;SDS011;16861;52.294;7.760;2023-02-15T03:35:17;23.80;;;15.20;;
30020;SDS011;16861;52.294;7.760;2023-02-15T03:37:53;26.20;;;14.93;;
30020;SDS011;16861;52.294;7.760;2023-02-15T03:40:57;21.30;;;14.50;;
30020;SDS011;16861;52.294;7.760;2023-02-15T03:46:16;21.60;;;14.52;;
30020;SDS011;16861;52.294;7.760;2023-02-15T03:48:51;21.67;;;14.95;;
30020;SDS011;16861;52.294;7.760;2023-02-15T03:51:21;23.45;;;14.43;;
30020;SDS011;16861;52.294;7.760;2023-02-15T03:54:34;20.70;;;13.50;;
30020;SDS011;16861;52.294;7.760;2023-02-15T03:57:18;22.17;;;14.32;;
30020;SDS011;16861;52.294;7.760;2023-02-15T04:00:26;26.98;;;15.10;;
30020;SDS011;16861;52.294;7.760;2023-02-15T04:05:46;25.08;;;15.73;;
30020;SDS011;16861;52.294;7.760;2023-02-15T04:08:13;28.05;;;16.23;;
30020;SDS011;16861;52.294;7.760;2023-02-15T04:10:39;26.52;;;15.93;;
30020;SDS011;16861;52.294;7.760;2023-02-15T04:13:22;27.13;;;16.75;;
30020;SDS011;16861;52.294;7.760;2023-02-15T04:15:50;26.63;;;15.95;;
30020;SDS011;16861;52.294;7.760;2023-02-15T04:18:32;27.25;;;16.70;;
30020;SDS011;16861;52.294;7.760;2023-02-15T04:21:19;29.50;;;16.50;;
30020;SDS011;16861;52.294;7.760;2023-02-15T04:24:06;25.30;;;16.33;;
30020;SDS011;16861;52.294;7.760;2023-02-15T04:26:52;25.95;;;15.38;;
30020;SDS011;16861;52.294;7.760;2023-02-15T04:29:22;26.48;;;16.35;;
30020;SDS011;16861;52.294;7.760;2023-02-15T04:31:50;23.67;;;15.52;;
30020;SDS011;16861;52.294;7.760;2023-02-15T04:34:18;24.88;;;15.77;;
30020;SDS011;16861;52.294;7.760;2023-02-15T04:36:44;24.35;;;15.23;;
30020;SDS011;16861;52.294;7.760;2023-02-15T04:39:15;25.33;;;14.77;;
30020;SDS011;16861;52.294;7.760;2023-02-15T04:41:42;26.42;;;15.88;;
30020;SDS011;16861;52.294;7.760;2023-02-15T04:44:09;24.08;;;15.23;;
30020;SDS011;16861;52.294;7.760;2023-02-15T04:46:37;21.73;;;13.98;;
30020;SDS011;16861;52.294;7.760;2023-02-15T04:49:03;24.20;;;15.75;;
30020;SDS011;16861;52.294;7.760;2023-02-15T04:51:30;23.70;;;14.20;;
30020;SDS011;16861;52.294;7.760;2023-02-15T04:53:56;25.48;;;15.23;;
30020;SDS011;16861;52.294;7.760;2023-02-15T04:56:23;24.10;;;15.73;;
30020;SDS011;16861;52.294;7.760;2023-02-15T04:58:49;25.48;;;15.07;;
30020;SDS011;16861;52.294;7.760;2023-02-15T05:01:16;25.35;;;15.43;;
30020;SDS011;16861;52.294;7.760;2023-02-15T05:03:44;25.00;;;15.40;;
30020;SDS011;16861;52.294;7.760;2023-02-15T05:06:10;31.35;;;15.90;;
30020;SDS011;16861;52.294;7.760;2023-02-15T05:08:37;24.77;;;14.95;;
30020;SDS011;16861;52.294;7.760;2023-02-15T05:11:03;25.70;;;15.43;;
30020;SDS011;16861;52.294;7.760;2023-02-15T05:13:30;21.38;;;14.10;;
30020;SDS011;16861;52.294;7.760;2023-02-15T05:15:56;21.75;;;13.55;;
30020;SDS011;16861;52.294;7.760;2023-02-15T05:18:23;22.65;;;14.95;;
30020;SDS011;16861;52.294;7.760;2023-02-15T05:20:50;23.23;;;14.75;;
30020;SDS011;16861;52.294;7.760;2023-02-15T05:23:16;22.55;;;14.48;;
30020;SDS011;16861;52.294;7.760;2023-02-15T05:25:46;27.23;;;15.55;;
30020;SDS011;16861;52.294;7.760;2023-02-15T05:28:32;25.77;;;16.52;;
30020;SDS011;16861;52.294;7.760;2023-02-15T05:33:30;21.35;;;14.13;;
30020;SDS011;16861;52.294;7.760;2023-02-15T05:35:57;23.80;;;14.02;;
30020;SDS011;16861;52.294;7.760;2023-02-15T05:38:24;21.88;;;14.63;;
30020;SDS011;16861;52.294;7.760;2023-02-15T05:40:50;24.60;;;14.85;;
30020;SDS011;16861;52.294;7.760;2023-02-15T05:43:17;25.52;;;15.32;;
30020;SDS011;16861;52.294;7.760;2023-02-15T05:45:47;24.00;;;15.23;;
30020;SDS011;16861;52.294;7.760;2023-02-15T05:48:19;28.50;;;16.00;;
30020;SDS011;16861;52.294;7.760;2023-02-15T05:50:56;23.63;;;15.27;;
30020;SDS011;16861;52.294;7.760;2023-02-15T05:53:34;27.23;;;15.27;;
30020;SDS011;16861;52.294;7.760;2023-02-15T05:56:02;22.80;;;15.55;;
30020;SDS011;16861;52.294;7.760;2023-02-15T05:58:31;25.63;;;16.25;;
30020;SDS011;16861;52.294;7.760;2023-02-15T06:01:06;26.85;;;17.52;;
30020;SDS011;16861;52.294;7.760;2023-02-15T06:03:34;25.25;;;15.95;;
30020;SDS011;16861;52.294;7.760;2023-02-15T06:06:01;25.27;;;15.32;;
30020;SDS011;16861;52.294;7.760;2023-02-15T06:08:30;26.08;;;15.48;;
30020;SDS011;16861;52.294;7.760;2023-02-15T06:10:57;27.33;;;16.38;;
30020;SDS011;16861;52.294;7.760;2023-02-15T06:13:24;25.38;;;16.52;;
30020;SDS011;16861;52.294;7.760;2023-02-15T06:15:50;30.05;;;16.38;;
30020;SDS011;16861;52.294;7.760;2023-02-15T06:18:17;24.67;;;15.65;;
30020;SDS011;16861;52.294;7.760;2023-02-15T06:20:46;24.98;;;15.90;;
30020;SDS011;16861;52.294;7.760;2023-02-15T06:23:14;24.90;;;15.55;;
30020;SDS011;16861;52.294;7.760;2023-02-15T06:25:41;25.48;;;15.75;;
30020;SDS011;16861;52.294;7.760;2023-02-15T06:28:07;28.25;;;14.90;;
30020;SDS011;16861;52.294;7.760;2023-02-15T06:30:34;22.90;;;14.32;;
30020;SDS011;16861;52.294;7.760;2023-02-15T06:33:00;22.80;;;14.88;;
30020;SDS011;16861;52.294;7.760;2023-02-15T06:35:27;24.33;;;14.93;;
30020;SDS011;16861;52.294;7.760;2023-02-15T06:37:53;24.92;;;15.68;;
30020;SDS011;16861;52.294;7.760;2023-02-15T06:40:20;23.75;;;14.15;;
30020;SDS011;16861;52.294;7.760;2023-02-15T06:42:46;23.20;;;14.82;;
30020;SDS011;16861;52.294;7.760;2023-02-15T06:45:13;21.95;;;14.05;;
30020;SDS011;16861;52.294;7.760;2023-02-15T06:47:39;20.80;;;13.25;;
30020;SDS011;16861;52.294;7.760;2023-02-15T06:50:06;27.13;;;14.70;;
30020;SDS011;16861;52.294;7.760;2023-02-15T06:52:33;24.10;;;14.23;;
30020;SDS011;16861;52.294;7.760;2023-02-15T06:55:00;22.65;;;14.02;;
30020;SDS011;16861;52.294;7.760;2023-02-15T06:57:27;22.38;;;13.68;;
30020;SDS011;16861;52.294;7.760;2023-02-15T06:59:53;24.83;;;14.68;;
30020;SDS011;16861;52.294;7.760;2023-02-15T07:02:20;20.60;;;13.57;;
30020;SDS011;16861;52.294;7.760;2023-02-15T07:04:46;22.00;;;13.73;;
30020;SDS011;16861;52.294;7.760;2023-02-15T07:07:13;21.33;;;13.43;;
30020;SDS011;16861;52.294;7.760;2023-02-15T07:09:40;24.88;;;14.35;;
30020;SDS011;16861;52.294;7.760;2023-02-15T07:12:06;20.25;;;13.38;;
30020;SDS011;16861;52.294;7.760;2023-02-15T07:14:52;27.65;;;14.05;;
30020;SDS011;16861;52.294;7.760;2023-02-15T07:17:18;21.58;;;13.02;;
30020;SDS011;16861;52.294;7.760;2023-02-15T07:20:03;21.25;;;13.93;;
30020;SDS011;16861;52.294;7.760;2023-02-15T07:22:31;22.08;;;13.75;;
30020;SDS011;16861;52.294;7.760;2023-02-15T07:25:00;24.52;;;14.48;;
30020;SDS011;16861;52.294;7.760;2023-02-15T07:27:26;23.52;;;14.30;;
30020;SDS011;16861;52.294;7.760;2023-02-15T07:29:53;23.38;;;14.10;;
30020;SDS011;16861;52.294;7.760;2023-02-15T07:32:19;22.70;;;14.27;;
30020;SDS011;16861;52.294;7.760;2023-02-15T07:34:46;21.85;;;14.70;;
30020;SDS011;16861;52.294;7.760;2023-02-15T07:37:12;23.70;;;13.93;;
30020;SDS011;16861;52.294;7.760;2023-02-15T07:39:39;21.05;;;13.02;;
30020;SDS011;16861;52.294;7.760;2023-02-15T07:42:05;22.85;;;13.65;;
30020;SDS011;16861;52.294;7.760;2023-02-15T07:44:32;22.23;;;13.52;;
30020;SDS011;16861;52.294;7.760;2023-02-15T07:46:58;22.10;;;13.95;;
30020;SDS011;16861;52.294;7.760;2023-02-15T07:49:25;24.00;;;14.30;;
30020;SDS011;16861;52.294;7.760;2023-02-15T07:51:51;20.92;;;13.88;;
30020;SDS011;16861;52.294;7.760;2023-02-15T07:54:18;24.08;;;15.43;;
30020;SDS011;16861;52.294;7.760;2023-02-15T07:56:44;25.33;;;14.95;;
30020;SDS011;16861;52.294;7.760;2023-02-15T07:59:11;27.98;;;14.82;;
30020;SDS011;16861;52.294;7.760;2023-02-15T08:01:38;25.80;;;15.50;;
30020;SDS011;16861;52.294;7.760;2023-02-15T08:04:06;26.58;;;16.05;;
30020;SDS011;16861;52.294;7.760;2023-02-15T08:06:35;27.08;;;15.85;;
30020;SDS011;16861;52.294;7.760;2023-02-15T08:09:03;25.67;;;16.27;;
30020;SDS011;16861;52.294;7.760;2023-02-15T08:11:32;27.65;;;17.05;;
30020;SDS011;16861;52.294;7.760;2023-02-15T08:16:35;27.40;;;16.52;;
30020;SDS011;16861;52.294;7.760;2023-02-15T08:21:32;25.80;;;16.27;;
30020;SDS011;16861;52.294;7.760;2023-02-15T08:23:59;26.08;;;16.42;;
30020;SDS011;16861;52.294;7.760;2023-02-15T08:26:27;28.80;;;16.92;;
30020;SDS011;16861;52.294;7.760;2023-02-15T08:28:54;28.10;;;16.75;;
30020;SDS011;16861;52.294;7.760;2023-02-15T08:31:21;28.95;;;16.90;;
30020;SDS011;16861;52.294;7.760;2023-02-15T08:33:50;29.58;;;18.08;;
30020;SDS011;16861;52.294;7.760;2023-02-15T08:36:19;27.70;;;16.60;;
30020;SDS011;16861;52.294;7.760;2023-02-15T08:38:47;28.55;;;16.30;;
30020;SDS011;16861;52.294;7.760;2023-02-15T08:41:15;27.88;;;17.83;;
30020;SDS011;16861;52.294;7.760;2023-02-15T08:43:45;32.55;;;19.85;;
30020;SDS011;16861;52.294;7.760;2023-02-15T08:46:14;30.15;;;17.95;;
30020;SDS011;16861;52.294;7.760;2023-02-15T08:48:41;28.42;;;18.25;;
30020;SDS011;16861;52.294;7.760;2023-02-15T08:53:45;31.52;;;19.20;;
30020;SDS011;16861;52.294;7.760;2023-02-15T08:56:17;30.98;;;19.25;;
30020;SDS011;16861;52.294;7.760;2023-02-15T08:58:46;27.33;;;17.13;;
30020;SDS011;16861;52.294;7.760;2023-02-15T09:01:16;30.75;;;19.25;;
30020;SDS011;16861;52.294;7.760;2023-02-15T09:03:47;32.33;;;18.80;;
30020;SDS011;16861;52.294;7.760;2023-02-15T09:06:16;29.83;;;17.95;;
30020;SDS011;16861;52.294;7.760;2023-02-15T09:08:43;27.48;;;17.30;;
30020;SDS011;16861;52.294;7.760;2023-02-15T09:11:10;28.35;;;17.90;;
30020;SDS011;16861;52.294;7.760;2023-02-15T09:13:39;30.80;;;18.52;;
30020;SDS011;16861;52.294;7.760;2023-02-15T09:16:07;31.98;;;19.30;;
30020;SDS011;16861;52.294;7.760;2023-02-15T09:21:42;27.73;;;17.52;;
30020;SDS011;16861;52.294;7.760;2023-02-15T09:24:09;29.90;;;17.83;;
30020;SDS011;16861;52.294;7.760;2023-02-15T09:26:39;28.15;;;18.58;;
30020;SDS011;16861;52.294;7.760;2023-02-15T09:29:08;30.50;;;18.35;;
30020;SDS011;16861;52.294;7.760;2023-02-15T09:31:42;30.42;;;18.15;;
30020;SDS011;16861;52.294;7.760;2023-02-15T09:34:11;27.13;;;17.17;;
30020;SDS011;16861;52.294;7.760;2023-02-15T09:36:39;31.20;;;18.88;;
30020;SDS011;16861;52.294;7.760;2023-02-15T09:39:08;29.90;;;19.25;;
30020;SDS011;16861;52.294;7.760;2023-02-15T09:50:11;29.38;;;18.83;;
30020;SDS011;16861;52.294;7.760;2023-02-15T09:55:42;28.05;;;18.30;;
30020;SDS011;16861;52.294;7.760;2023-02-15T10:03:42;30.08;;;19.15;;
30020;SDS011;16861;52.294;7.760;2023-02-15T10:06:34;28.80;;;17.75;;
30020;SDS011;16861;52.294;7.760;2023-02-15T10:12:31;30.17;;;17.85;;
30020;SDS011;16861;52.294;7.760;2023-02-15T10:14:40;29.33;;;18.27;;
30020;SDS011;16861;52.294;7.760;2023-02-15T10:28:16;28.75;;;17.70;;
30020;SDS011;16861;52.294;7.760;2023-02-15T10:30:49;25.95;;;17.92;;
30020;SDS011;16861;52.294;7.760;2023-02-15T10:38:48;35.33;;;20.50;;
30020;SDS011;16861;52.294;7.760;2023-02-15T10:52:25;29.17;;;19.10;;
30020;SDS011;16861;52.294;7.760;2023-02-15T10:55:08;32.60;;;19.85;;
30020;SDS011;16861;52.294;7.760;2023-02-15T11:00:30;32.65;;;19.42;;
30020;SDS011;16861;52.294;7.760;2023-02-15T11:08:16;30.25;;;19.70;;
30020;SDS011;16861;52.294;7.760;2023-02-15T11:10:51;30.42;;;19.60;;
30020;SDS011;16861;52.294;7.760;2023-02-15T11:13:23;36.30;;;21.70;;
30020;SDS011;16861;52.294;7.760;2023-02-15T11:23:40;33.33;;;20.90;;
30020;SDS011;16861;52.294;7.760;2023-02-15T11:26:12;34.00;;;21.58;;
30020;SDS011;16861;52.294;7.760;2023-02-15T11:28:47;27.88;;;19.88;;
30020;SDS011;16861;52.294;7.760;2023-02-15T11:31:30;31.35;;;20.63;;
30020;SDS011;16861;52.294;7.760;2023-02-15T11:34:23;31.10;;;20.23;;
30020;SDS011;16861;52.294;7.760;2023-02-15T11:37:32;33.13;;;21.48;;
30020;SDS011;16861;52.294;7.760;2023-02-15T11:39:55;33.22;;;21.67;;
30020;SDS011;16861;52.294;7.760;2023-02-15T11:42:23;32.50;;;21.98;;
30020;SDS011;16861;52.294;7.760;2023-02-15T11:47:21;31.38;;;19.83;;
30020;SDS011;16861;52.294;7.760;2023-02-15T11:49:49;33.13;;;21.67;;
30020;SDS011;16861;52.294;7.760;2023-02-15T11:52:16;29.80;;;21.13;;
30020;SDS011;16861;52.294;7.760;2023-02-15T11:54:48;28.88;;;19.52;;
30020;SDS011;16861;52.294;7.760;2023-02-15T11:59:46;29.75;;;20.05;;
30020;SDS011;16861;52.294;7.760;2023-02-15T12:02:20;28.98;;;20.38;;
30020;SDS011;16861;52.294;7.760;2023-02-15T12:04:52;25.00;;;18.75;;
30020;SDS011;16861;52.294;7.760;2023-02-15T12:12:40;26.15;;;18.55;;
30020;SDS011;16861;52.294;7.760;2023-02-15T12:15:07;26.15;;;18.67;;
30020;SDS011;16861;52.294;7.760;2023-02-15T12:17:52;26.52;;;18.73;;
30020;SDS011;16861;52.294;7.760;2023-02-15T12:20:30;26.75;;;18.45;;
30020;SDS011;16861;52.294;7.760;2023-02-15T12:23:14;28.13;;;19.30;;
30020;SDS011;16861;52.294;7.760;2023-02-15T12:25:49;27.25;;;18.10;;
30020;SDS011;16861;52.294;7.760;2023-02-15T12:31:07;24.52;;;17.98;;
30020;SDS011;16861;52.294;7.760;2023-02-15T12:33:57;28.67;;;18.38;;
30020;SDS011;16861;52.294;7.760;2023-02-15T12:36:32;27.15;;;18.48;;
30020;SDS011;16861;52.294;7.760;2023-02-15T12:41:49;27.15;;;19.17;;
30020;SDS011;16861;52.294;7.760;2023-02-15T12:44:26;25.20;;;18.02;;
30020;SDS011;16861;52.294;7.760;2023-02-15T12:47:04;30.20;;;18.67;;
30020;SDS011;16861;52.294;7.760;2023-02-15T12:52:44;26.90;;;18.90;;
30020;SDS011;16861;52.294;7.760;2023-02-15T12:55:25;28.33;;;19.50;;
30020;SDS011;16861;52.294;7.760;2023-02-15T13:03:35;25.60;;;18.25;;
30020;SDS011;16861;52.294;7.760;2023-02-15T13:06:05;24.50;;;17.92;;
30020;SDS011;16861;52.294;7.760;2023-02-15T13:08:34;28.55;;;19.15;;
30020;SDS011;16861;52.294;7.760;2023-02-15T13:11:11;27.75;;;19.08;;
30020;SDS011;16861;52.294;7.760;2023-02-15T13:13:52;30.15;;;19.48;;
30020;SDS011;16861;52.294;7.760;2023-02-15T13:16:42;28.20;;;19.33;;
30020;SDS011;16861;52.294;7.760;2023-02-15T13:19:15;29.88;;;18.92;;
30020;SDS011;16861;52.294;7.760;2023-02-15T13:21:50;29.13;;;19.80;;
30020;SDS011;16861;52.294;7.760;2023-02-15T13:27:12;29.95;;;19.00;;
30020;SDS011;16861;52.294;7.760;2023-02-15T13:29:52;33.38;;;20.75;;
30020;SDS011;16861;52.294;7.760;2023-02-15T13:32:34;33.03;;;20.77;;
30020;SDS011;16861;52.294;7.760;2023-02-15T13:35:04;31.48;;;20.70;;
30020;SDS011;16861;52.294;7.760;2023-02-15T13:42:41;34.30;;;20.13;;
30020;SDS011;16861;52.294;7.760;2023-02-15T13:45:30;32.75;;;20.02;;
30020;SDS011;16861;52.294;7.760;2023-02-15T13:59:24;32.05;;;20.35;;
30020;SDS011;16861;52.294;7.760;2023-02-15T14:02:30;29.48;;;19.25;;
30020;SDS011;16861;52.294;7.760;2023-02-15T14:10:31;30.63;;;20.45;;
30020;SDS011;16861;52.294;7.760;2023-02-15T14:18:35;32.08;;;19.50;;
30020;SDS011;16861;52.294;7.760;2023-02-15T14:21:25;28.70;;;19.38;;
30020;SDS011;16861;52.294;7.760;2023-02-15T14:24:16;31.75;;;18.98;;
30020;SDS011;16861;52.294;7.760;2023-02-15T14:32:11;31.08;;;20.85;;
30020;SDS011;16861;52.294;7.760;2023-02-15T14:34:46;29.95;;;19.30;;
30020;SDS011;16861;52.294;7.760;2023-02-15T14:43:45;27.77;;;17.20;;
30020;SDS011;16861;52.294;7.760;2023-02-15T14:49:26;29.80;;;18.50;;
30020;SDS011;16861;52.294;7.760;2023-02-15T14:51:58;28.48;;;18.90;;
30020;SDS011;16861;52.294;7.760;2023-02-15T15:05:33;29.75;;;20.27;;
30020;SDS011;16861;52.294;7.760;2023-02-15T15:07:59;27.98;;;19.38;;
30020;SDS011;16861;52.294;7.760;2023-02-15T15:10:41;29.77;;;19.02;;
30020;SDS011;16861;52.294;7.760;2023-02-15T15:32:42;40.38;;;23.55;;
30020;SDS011;16861;52.294;7.760;2023-02-15T15:44:06;37.15;;;21.40;;
30020;SDS011;16861;52.294;7.760;2023-02-15T15:46:47;35.85;;;20.85;;
30020;SDS011;16861;52.294;7.760;2023-02-15T15:49:17;34.63;;;21.23;;
30020;SDS011;16861;52.294;7.760;2023-02-15T15:51:46;34.92;;;21.73;;
30020;SDS011;16861;52.294;7.760;2023-02-15T15:54:18;36.42;;;21.95;;
30020;SDS011;16861;52.294;7.760;2023-02-15T15:56:47;38.67;;;21.35;;
30020;SDS011;16861;52.294;7.760;2023-02-15T15:59:19;32.58;;;21.15;;
30020;SDS011;16861;52.294;7.760;2023-02-15T16:01:49;34.95;;;21.40;;
30020;SDS011;16861;52.294;7.760;2023-02-15T16:04:29;34.05;;;21.23;;
30020;SDS011;16861;52.294;7.760;2023-02-15T16:09:56;37.20;;;20.63;;
30020;SDS011;16861;52.294;7.760;2023-02-15T16:12:28;32.85;;;21.25;;
30020;SDS011;16861;52.294;7.760;2023-02-15T16:14:57;39.45;;;21.73;;
30020;SDS011;16861;52.294;7.760;2023-02-15T16:17:48;33.17;;;20.92;;
30020;SDS011;16861;52.294;7.760;2023-02-15T16:26:02;35.83;;;20.60;;
30020;SDS011;16861;52.294;7.760;2023-02-15T16:28:33;30.75;;;19.42;;
30020;SDS011;16861;52.294;7.760;2023-02-15T16:33:41;33.58;;;20.38;;
30020;SDS011;16861;52.294;7.760;2023-02-15T16:36:12;37.10;;;21.50;;
30020;SDS011;16861;52.294;7.760;2023-02-15T16:41:16;37.38;;;21.23;;
30020;SDS011;16861;52.294;7.760;2023-02-15T16:43:47;35.08;;;20.95;;
30020;SDS011;16861;52.294;7.760;2023-02-15T16:46:21;34.67;;;21.15;;
30020;SDS011;16861;52.294;7.760;2023-02-15T16:48:54;37.42;;;21.55;;
30020;SDS011;16861;52.294;7.760;2023-02-15T16:51:26;34.72;;;21.00;;
30020;SDS011;16861;52.294;7.760;2023-02-15T16:53:55;34.67;;;20.88;;
30020;SDS011;16861;52.294;7.760;2023-02-15T16:56:25;36.15;;;21.30;;
30020;SDS011;16861;52.294;7.760;2023-02-15T16:58:56;38.88;;;21.65;;
30020;SDS011;16861;52.294;7.760;2023-02-15T17:01:26;33.50;;;21.30;;
30020;SDS011;16861;52.294;7.760;2023-02-15T17:04:12;35.67;;;20.55;;
30020;SDS011;16861;52.294;7.760;2023-02-15T17:06:38;35.65;;;21.98;;
30020;SDS011;16861;52.294;7.760;2023-02-15T17:09:06;34.30;;;20.63;;
30020;SDS011;16861;52.294;7.760;2023-02-15T17:11:44;34.75;;;20.50;;
30020;SDS011;16861;52.294;7.760;2023-02-15T17:14:12;37.05;;;21.45;;
30020;SDS011;16861;52.294;7.760;2023-02-15T17:16:48;37.13;;;20.48;;
30020;SDS011;16861;52.294;7.760;2023-02-15T17:19:47;35.35;;;21.35;;
30020;SDS011;16861;52.294;7.760;2023-02-15T17:22:19;38.83;;;22.42;;
30020;SDS011;16861;52.294;7.760;2023-02-15T17:24:59;39.38;;;21.27;;
30020;SDS011;16861;52.294;7.760;2023-02-15T17:27:28;38.30;;;20.77;;
30020;SDS011;16861;52.294;7.760;2023-02-15T17:30:02;39.08;;;21.38;;
30020;SDS011;16861;52.294;7.760;2023-02-15T17:32:38;36.92;;;20.90;;
30020;SDS011;16861;52.294;7.760;2023-02-15T17:35:20;36.85;;;21.10;;
30020;SDS011;16861;52.294;7.760;2023-02-15T17:37:59;37.70;;;21.25;;
30020;SDS011;16861;52.294;7.760;2023-02-15T17:40:29;32.17;;;19.65;;
30020;SDS011;16861;52.294;7.760;2023-02-15T17:42:57;35.35;;;20.05;;
30020;SDS011;16861;52.294;7.760;2023-02-15T17:45:31;36.53;;;21.13;;
30020;SDS011;16861;52.294;7.760;2023-02-15T17:48:01;40.83;;;22.02;;
30020;SDS011;16861;52.294;7.760;2023-02-15T17:50:32;38.67;;;21.50;;
30020;SDS011;16861;52.294;7.760;2023-02-15T17:52:59;36.20;;;19.63;;
30020;SDS011;16861;52.294;7.760;2023-02-15T17:55:27;34.55;;;19.65;;
30020;SDS011;16861;52.294;7.760;2023-02-15T17:58:07;36.03;;;19.92;;
30020;SDS011;16861;52.294;7.760;2023-02-15T18:00:36;34.95;;;20.70;;
30020;SDS011;16861;52.294;7.760;2023-02-15T18:03:28;36.85;;;21.52;;
30020;SDS011;16861;52.294;7.760;2023-02-15T18:06:22;38.17;;;20.63;;
30020;SDS011;16861;52.294;7.760;2023-02-15T18:09:10;34.75;;;19.95;;
30020;SDS011;16861;52.294;7.760;2023-02-15T18:12:00;32.42;;;19.65;;
30020;SDS011;16861;52.294;7.760;2023-02-15T18:14:27;34.83;;;20.92;;
30020;SDS011;16861;52.294;7.760;2023-02-15T18:16:53;34.13;;;20.15;;
30020;SDS011;16861;52.294;7.760;2023-02-15T18:19:22;36.17;;;19.88;;
30020;SDS011;16861;52.294;7.760;2023-02-15T18:21:51;39.40;;;20.13;;
30020;SDS011;16861;52.294;7.760;2023-02-15T18:24:19;31.95;;;20.25;;
30020;SDS011;16861;52.294;7.760;2023-02-15T18:26:50;34.88;;;19.20;;
30020;SDS011;16861;52.294;7.760;2023-02-15T18:29:17;33.65;;;18.73;;
30020;SDS011;16861;52.294;7.760;2023-02-15T18:31:44;33.08;;;18.98;;
30020;SDS011;16861;52.294;7.760;2023-02-15T18:34:20;33.83;;;18.80;;